createdAt,value
2022-11-25T00:01:39.284Z,9.13
2022-11-25T00:04:08.095Z,9.20
2022-11-25T00:06:36.231Z,9.09
2022-11-25T00:09:04.684Z,9.20
2022-11-25T00:11:32.276Z,9.46
2022-11-25T00:13:59.852Z,9.47
2022-11-25T00:16:27.623Z,9.62
2022-11-25T00:18:55.777Z,9.46
2022-11-25T00:21:25.233Z,9.72
2022-11-25T00:23:53.443Z,10.06
2022-11-25T00:26:21.066Z,9.93
2022-11-25T00:28:48.656Z,10.08
2022-11-25T00:31:17.278Z,9.80
2022-11-25T00:33:44.817Z,10.21
2022-11-25T00:36:15.764Z,10.10
2022-11-25T00:38:44.742Z,10.33
2022-11-25T00:41:29.819Z,10.27
2022-11-25T00:44:14.697Z,10.30
2022-11-25T00:46:42.446Z,10.48
2022-11-25T00:49:09.968Z,10.15
2022-11-25T00:51:37.603Z,10.17
2022-11-25T00:54:06.612Z,10.53
2022-11-25T00:56:34.128Z,10.40
2022-11-25T00:59:01.615Z,10.53
2022-11-25T01:01:29.209Z,10.48
2022-11-25T01:03:56.761Z,10.63
2022-11-25T01:06:24.295Z,10.50
2022-11-25T01:08:51.801Z,10.35
2022-11-25T01:11:21.509Z,10.40
2022-11-25T01:13:49.230Z,10.59
2022-11-25T01:16:17.935Z,10.39
2022-11-25T01:18:45.636Z,10.57
2022-11-25T01:21:14.108Z,10.51
2022-11-25T01:23:41.751Z,10.80
2022-11-25T01:26:09.867Z,10.77
2022-11-25T01:28:38.757Z,10.62
2022-11-25T01:31:06.899Z,10.41
2022-11-25T01:33:34.517Z,10.72
2022-11-25T01:36:02.787Z,11.00
2022-11-25T01:38:30.298Z,10.75
2022-11-25T01:40:57.849Z,10.61
2022-11-25T01:43:25.536Z,10.25
2022-11-25T01:45:54.518Z,10.61
2022-11-25T01:48:23.463Z,10.55
2022-11-25T01:50:50.976Z,10.41
2022-11-25T01:53:18.515Z,10.30
2022-11-25T01:55:46.441Z,10.58
2022-11-25T01:58:14.312Z,10.20
2022-11-25T02:00:41.916Z,10.65
2022-11-25T02:03:10.772Z,10.66
2022-11-25T02:05:39.671Z,10.67
2022-11-25T02:08:07.304Z,10.65
2022-11-25T02:10:34.814Z,10.72
2022-11-25T02:13:02.340Z,10.69
2022-11-25T02:15:30.185Z,10.84
2022-11-25T02:17:57.725Z,10.89
2022-11-25T02:20:26.566Z,10.67
2022-11-25T02:22:56.060Z,10.79
2022-11-25T02:25:25.482Z,10.50
2022-11-25T02:27:53.939Z,10.23
2022-11-25T02:30:21.471Z,10.62
2022-11-25T02:32:48.971Z,10.47
2022-11-25T02:35:26.626Z,10.65
2022-11-25T02:37:54.680Z,10.17
2022-11-25T02:40:22.123Z,10.50
2022-11-25T02:42:51.181Z,10.77
2022-11-25T02:45:19.109Z,10.64
2022-11-25T02:47:46.656Z,10.73
2022-11-25T02:50:14.704Z,10.26
2022-11-25T02:52:42.847Z,10.23
2022-11-25T02:55:10.592Z,10.43
2022-11-25T02:57:38.108Z,9.96
2022-11-25T03:00:08.055Z,10.31
2022-11-25T03:02:35.631Z,10.46
2022-11-25T03:05:03.864Z,10.72
2022-11-25T03:07:31.449Z,10.33
2022-11-25T03:09:58.986Z,10.60
2022-11-25T03:12:26.504Z,10.34
2022-11-25T03:14:53.960Z,10.75
2022-11-25T03:17:22.799Z,10.65
2022-11-25T03:19:50.287Z,10.79
2022-11-25T03:22:17.782Z,10.64
2022-11-25T03:24:45.318Z,10.99
2022-11-25T03:27:12.844Z,11.11
2022-11-25T03:29:40.288Z,10.62
2022-11-25T03:32:09.713Z,10.96
2022-11-25T03:34:39.054Z,10.83
2022-11-25T03:37:06.608Z,10.93
2022-11-25T03:39:34.243Z,10.66
2022-11-25T03:42:01.805Z,10.80
2022-11-25T03:44:29.277Z,11.22
2022-11-25T03:46:56.787Z,10.88
2022-11-25T03:49:24.294Z,10.95
2022-11-25T03:51:53.392Z,10.84
2022-11-25T03:54:20.915Z,10.56
2022-11-25T03:56:48.424Z,10.60
2022-11-25T03:59:15.882Z,10.80
2022-11-25T04:01:44.492Z,11.02
2022-11-25T04:04:12.190Z,10.64
2022-11-25T04:06:40.220Z,10.82
2022-11-25T04:09:09.466Z,10.58
2022-11-25T04:11:53.510Z,10.38
2022-11-25T04:14:20.971Z,10.65
2022-11-25T04:16:48.543Z,10.22
2022-11-25T04:19:16.065Z,10.61
2022-11-25T04:21:45.843Z,10.76
2022-11-25T04:24:18.213Z,11.02
2022-11-25T04:26:45.702Z,10.98
2022-11-25T04:29:13.204Z,11.10
2022-11-25T04:31:40.727Z,11.22
2022-11-25T04:34:08.234Z,10.98
2022-11-25T04:36:35.687Z,11.03
2022-11-25T04:39:03.185Z,11.08
2022-11-25T04:41:32.125Z,11.16
2022-11-25T04:44:00.468Z,10.95
2022-11-25T04:46:29.262Z,10.81
2022-11-25T04:48:56.824Z,10.90
2022-11-25T04:51:24.315Z,11.16
2022-11-25T04:53:51.804Z,11.13
2022-11-25T04:56:20.405Z,10.79
2022-11-25T04:59:06.887Z,11.16
2022-11-25T05:01:34.423Z,11.27
2022-11-25T05:04:01.923Z,11.11
2022-11-25T05:06:29.407Z,11.14
2022-11-25T05:08:56.965Z,10.71
2022-11-25T05:11:24.415Z,10.99
2022-11-25T05:13:53.226Z,10.96
2022-11-25T05:16:20.791Z,10.77
2022-11-25T05:18:48.336Z,11.08
2022-11-25T05:21:15.840Z,11.14
2022-11-25T05:23:43.342Z,10.92
2022-11-25T05:26:10.852Z,11.03
2022-11-25T05:28:38.330Z,11.03
2022-11-25T05:31:07.314Z,10.94
2022-11-25T05:33:34.871Z,10.87
2022-11-25T05:36:03.205Z,10.91
2022-11-25T05:38:30.876Z,11.16
2022-11-25T05:41:01.536Z,10.71
2022-11-25T05:43:29.098Z,11.10
2022-11-25T05:45:56.731Z,10.86
2022-11-25T05:48:25.633Z,10.67
2022-11-25T05:50:53.106Z,10.93
2022-11-25T05:53:20.584Z,10.95
2022-11-25T05:55:54.720Z,10.27
2022-11-25T05:58:22.267Z,10.79
2022-11-25T06:00:49.783Z,10.90
2022-11-25T06:03:17.534Z,10.74
2022-11-25T06:05:46.427Z,10.66
2022-11-25T06:08:13.862Z,10.73
2022-11-25T06:10:41.475Z,10.45
2022-11-25T06:13:09.164Z,10.89
2022-11-25T06:15:36.853Z,10.78
2022-11-25T06:18:04.499Z,10.41
2022-11-25T06:20:32.004Z,10.71
2022-11-25T06:23:00.839Z,10.95
2022-11-25T06:25:28.860Z,11.03
2022-11-25T06:28:12.281Z,10.64
2022-11-25T06:30:40.524Z,10.70
2022-11-25T06:33:08.030Z,10.64
2022-11-25T06:35:35.539Z,10.40
2022-11-25T06:38:04.338Z,10.43
2022-11-25T06:40:32.729Z,10.74
2022-11-25T06:43:00.246Z,10.80
2022-11-25T06:45:27.893Z,10.93
2022-11-25T06:47:55.385Z,10.75
2022-11-25T06:50:22.851Z,10.65
2022-11-25T06:52:50.319Z,10.75
2022-11-25T06:55:19.376Z,10.51
2022-11-25T06:57:46.862Z,10.47
2022-11-25T07:00:14.990Z,10.67
2022-11-25T07:02:46.867Z,10.94
2022-11-25T07:05:16.231Z,10.64
2022-11-25T07:07:43.827Z,10.13
2022-11-25T07:10:11.642Z,10.53
2022-11-25T07:12:40.986Z,10.71
2022-11-25T07:15:08.759Z,10.51
2022-11-25T07:17:36.227Z,10.63
2022-11-25T07:20:03.767Z,10.58
2022-11-25T07:22:31.289Z,10.68
2022-11-25T07:24:58.783Z,10.68
2022-11-25T07:27:26.243Z,10.60
2022-11-25T07:30:29.205Z,10.44
2022-11-25T07:32:42.547Z,10.17
2022-11-25T07:35:10.318Z,10.32
2022-11-25T07:37:37.803Z,10.60
2022-11-25T07:40:05.927Z,10.60
2022-11-25T07:42:33.744Z,10.86
2022-11-25T07:45:02.567Z,10.65
2022-11-25T07:47:30.030Z,10.60
2022-11-25T07:49:57.474Z,10.55
2022-11-25T07:52:25.004Z,10.69
2022-11-25T07:54:52.545Z,10.92
2022-11-25T07:57:20.105Z,10.95
2022-11-25T07:59:47.592Z,10.98
2022-11-25T08:02:16.729Z,11.12
2022-11-25T08:04:44.274Z,10.90
2022-11-25T08:07:11.827Z,10.52
2022-11-25T08:09:39.627Z,11.02
2022-11-25T08:12:07.317Z,11.14
2022-11-25T08:14:35.372Z,10.97
2022-11-25T08:17:04.524Z,11.09
2022-11-25T08:19:33.343Z,11.15
2022-11-25T08:22:00.838Z,10.95
2022-11-25T08:24:28.376Z,10.98
2022-11-25T08:26:58.598Z,10.77
2022-11-25T08:29:26.141Z,10.71
2022-11-25T08:31:53.647Z,10.57
2022-11-25T08:34:21.871Z,11.00
2022-11-25T08:36:50.774Z,11.07
2022-11-25T08:42:06.304Z,11.20
2022-11-25T08:44:33.824Z,10.60
2022-11-25T08:47:01.513Z,11.62
2022-11-25T08:49:32.636Z,11.70
2022-11-25T08:52:03.815Z,11.80
2022-11-25T08:54:31.596Z,11.19
2022-11-25T08:57:00.660Z,11.32
2022-11-25T08:59:28.205Z,11.17
2022-11-25T09:01:55.817Z,10.79
2022-11-25T09:04:23.345Z,11.24
2022-11-25T09:06:50.827Z,11.11
2022-11-25T09:09:19.746Z,11.21
2022-11-25T09:11:47.301Z,11.29
2022-11-25T09:14:14.972Z,11.78
2022-11-25T09:16:42.621Z,11.03
2022-11-25T09:19:10.269Z,11.06
2022-11-25T09:21:37.777Z,11.38
2022-11-25T09:24:05.295Z,11.50
2022-11-25T09:26:35.825Z,11.33
2022-11-25T09:29:03.752Z,11.05
2022-11-25T09:31:31.355Z,10.82
2022-11-25T09:33:58.987Z,10.77
2022-11-25T09:36:26.471Z,11.50
2022-11-25T09:38:53.980Z,11.68
2022-11-25T09:41:39.616Z,11.81
2022-11-25T09:44:27.296Z,11.71
2022-11-25T09:46:55.894Z,11.83
2022-11-25T09:49:29.839Z,11.72
2022-11-25T09:51:59.694Z,11.29
2022-11-25T09:54:27.855Z,11.56
2022-11-25T09:56:56.116Z,11.37
2022-11-25T09:59:26.344Z,11.23
2022-11-25T10:01:55.746Z,11.53
2022-11-25T10:04:24.790Z,11.39
2022-11-25T10:06:55.588Z,11.51
2022-11-25T10:09:24.141Z,11.12
2022-11-25T10:11:52.713Z,11.87
2022-11-25T10:14:22.915Z,11.08
2022-11-25T10:16:52.763Z,11.33
2022-11-25T10:19:24.205Z,10.99
2022-11-25T10:21:51.989Z,11.14
2022-11-25T10:24:21.291Z,11.58
2022-11-25T10:26:50.387Z,11.31
2022-11-25T10:29:21.488Z,11.40
2022-11-25T10:31:49.044Z,10.99
2022-11-25T10:34:19.521Z,11.61
2022-11-25T10:36:46.980Z,11.99
2022-11-25T10:39:14.947Z,11.56
2022-11-25T10:41:44.668Z,11.62
2022-11-25T10:44:13.455Z,11.40
2022-11-25T10:47:11.892Z,11.67
2022-11-25T10:49:32.200Z,11.37
2022-11-25T10:51:59.810Z,12.00
2022-11-25T10:54:28.262Z,11.69
2022-11-25T10:56:57.661Z,11.70
2022-11-25T10:59:26.817Z,12.46
2022-11-25T11:01:54.603Z,11.98
2022-11-25T11:04:22.244Z,11.81
2022-11-25T11:06:51.147Z,12.50
2022-11-25T11:09:34.916Z,12.38
2022-11-25T11:12:09.119Z,12.09
2022-11-25T11:14:36.827Z,11.80
2022-11-25T11:17:04.611Z,11.43
2022-11-25T11:19:32.381Z,12.46
2022-11-25T11:22:16.676Z,12.58
2022-11-25T11:24:44.215Z,11.21
2022-11-25T11:27:16.586Z,11.70
2022-11-25T11:29:44.047Z,11.96
2022-11-25T11:32:20.740Z,12.10
2022-11-25T11:34:54.723Z,12.00
2022-11-25T11:37:36.675Z,12.58
2022-11-25T11:40:13.768Z,12.59
2022-11-25T11:42:43.291Z,12.50
2022-11-25T11:45:14.111Z,12.75
2022-11-25T11:47:43.007Z,12.63
2022-11-25T11:50:18.516Z,12.95
2022-11-25T11:52:50.413Z,11.98
2022-11-25T11:55:21.429Z,12.18
2022-11-25T11:57:51.844Z,12.07
2022-11-25T12:00:19.601Z,12.97
2022-11-25T12:02:54.057Z,12.68
2022-11-25T12:05:23.134Z,12.20
2022-11-25T12:07:55.274Z,13.02
2022-11-25T12:10:24.951Z,13.15
2022-11-25T12:12:54.160Z,13.07
2022-11-25T12:15:23.532Z,12.70
2022-11-25T12:17:52.675Z,12.51
2022-11-25T12:20:23.585Z,12.93
2022-11-25T12:22:52.218Z,12.81
2022-11-25T12:25:21.600Z,12.50
2022-11-25T12:27:50.284Z,12.07
2022-11-25T12:30:18.532Z,12.93
2022-11-25T12:32:58.235Z,12.16
2022-11-25T12:35:29.276Z,12.53
2022-11-25T12:38:00.058Z,13.05
2022-11-25T12:40:30.817Z,12.86
2022-11-25T12:43:03.513Z,12.85
2022-11-25T12:45:31.048Z,13.06
2022-11-25T12:47:58.544Z,12.25
2022-11-25T12:50:29.755Z,12.96
2022-11-25T12:52:57.933Z,13.64
2022-11-25T12:55:25.849Z,13.67
2022-11-25T12:58:11.237Z,12.40
2022-11-25T13:00:43.608Z,12.80
2022-11-25T13:03:31.119Z,13.09
2022-11-25T13:06:16.772Z,13.19
2022-11-25T13:08:50.025Z,12.85
2022-11-25T13:11:22.530Z,13.27
2022-11-25T13:13:52.699Z,13.48
2022-11-25T13:16:21.071Z,13.86
2022-11-25T13:18:48.939Z,13.08
2022-11-25T13:21:16.546Z,13.04
2022-11-25T13:23:49.594Z,13.26
2022-11-25T13:26:37.382Z,13.00
2022-11-25T13:29:22.796Z,13.65
2022-11-25T13:32:00.921Z,13.62
2022-11-25T13:34:30.584Z,13.08
2022-11-25T13:36:58.583Z,12.99
2022-11-25T13:39:32.741Z,13.36
2022-11-25T13:42:01.106Z,13.12
2022-11-25T13:44:30.836Z,12.86
2022-11-25T13:46:59.246Z,13.38
2022-11-25T13:49:32.559Z,13.69
2022-11-25T13:52:00.689Z,13.14
2022-11-25T13:54:34.142Z,14.03
2022-11-25T13:57:22.803Z,13.80
2022-11-25T13:59:51.267Z,13.02
2022-11-25T14:02:29.993Z,14.31
2022-11-25T14:04:59.876Z,13.55
2022-11-25T14:07:28.331Z,14.02
2022-11-25T14:09:58.208Z,13.38
2022-11-25T14:12:38.460Z,12.82
2022-11-25T14:15:12.123Z,13.29
2022-11-25T14:17:45.333Z,13.30
2022-11-25T14:20:21.735Z,13.16
2022-11-25T14:22:57.647Z,13.47
2022-11-25T14:25:26.725Z,13.51
2022-11-25T14:28:02.403Z,13.02
2022-11-25T14:30:31.302Z,13.15
2022-11-25T14:33:01.071Z,13.42
2022-11-25T14:35:32.076Z,13.64
2022-11-25T14:38:00.343Z,13.50
2022-11-25T14:40:28.414Z,13.36
2022-11-25T14:42:59.760Z,13.94
2022-11-25T14:45:29.495Z,13.72
2022-11-25T14:47:57.029Z,13.57
2022-11-25T14:50:34.797Z,13.72
2022-11-25T14:53:07.336Z,13.22
2022-11-25T14:55:34.966Z,13.20
2022-11-25T14:58:02.488Z,13.36
2022-11-25T15:00:30.043Z,12.50
2022-11-25T15:02:58.882Z,12.43
2022-11-25T15:05:27.255Z,12.64
2022-11-25T15:07:57.149Z,12.69
2022-11-25T15:10:37.069Z,12.50
2022-11-25T15:13:06.303Z,12.80
2022-11-25T15:15:33.749Z,12.50
2022-11-25T15:18:04.815Z,12.68
2022-11-25T15:20:35.083Z,12.86
2022-11-25T15:23:02.624Z,12.47
2022-11-25T15:25:30.145Z,12.34
2022-11-25T15:27:59.048Z,12.53
2022-11-25T15:30:27.355Z,12.73
2022-11-25T15:32:54.973Z,12.68
2022-11-25T15:35:23.288Z,12.55
2022-11-25T15:37:50.865Z,12.62
2022-11-25T15:40:31.107Z,12.48
2022-11-25T15:42:59.906Z,12.56
2022-11-25T15:45:27.967Z,12.61
2022-11-25T15:47:55.485Z,12.65
2022-11-25T15:50:23.613Z,12.41
2022-11-25T15:52:51.547Z,12.35
2022-11-25T15:55:19.770Z,12.57
2022-11-25T15:57:49.747Z,12.22
2022-11-25T16:00:19.732Z,12.18
2022-11-25T16:02:51.757Z,12.12
2022-11-25T16:05:24.995Z,12.13
2022-11-25T16:07:57.875Z,11.73
2022-11-25T16:10:26.196Z,11.79
2022-11-25T16:13:08.524Z,11.96
2022-11-25T16:15:44.458Z,12.06
2022-11-25T16:18:38.724Z,11.65
2022-11-25T16:21:00.729Z,11.35
2022-11-25T16:23:28.179Z,11.01
2022-11-25T16:25:56.985Z,11.71
2022-11-25T16:28:25.294Z,11.89
2022-11-25T16:30:57.857Z,11.77
2022-11-25T16:33:26.912Z,11.50
2022-11-25T16:35:54.430Z,11.64
2022-11-25T16:38:21.909Z,11.30
2022-11-25T16:40:49.425Z,11.60
2022-11-25T16:43:17.280Z,11.42
2022-11-25T16:45:44.767Z,11.39
2022-11-25T16:48:16.538Z,11.50
2022-11-25T16:50:44.027Z,11.16
2022-11-25T16:53:11.630Z,10.79
2022-11-25T16:55:39.207Z,10.96
2022-11-25T16:58:06.769Z,11.14
2022-11-25T17:00:34.216Z,10.70
2022-11-25T17:03:01.691Z,10.95
2022-11-25T17:05:30.874Z,10.99
2022-11-25T17:07:58.410Z,11.04
2022-11-25T17:10:27.555Z,10.95
2022-11-25T17:12:55.155Z,10.79
2022-11-25T17:15:24.737Z,10.80
2022-11-25T17:17:52.319Z,10.82
2022-11-25T17:20:21.655Z,10.72
2022-11-25T17:22:52.927Z,10.94
2022-11-25T17:25:21.242Z,10.79
2022-11-25T17:27:48.727Z,10.84
2022-11-25T17:30:17.419Z,10.79
2022-11-25T17:32:45.016Z,10.86
2022-11-25T17:35:17.571Z,11.07
2022-11-25T17:37:45.029Z,10.98
2022-11-25T17:40:13.686Z,10.93
2022-11-25T17:42:42.625Z,10.89
2022-11-25T17:45:12.372Z,10.92
2022-11-25T17:47:39.855Z,10.83
2022-11-25T17:50:13.964Z,10.74
2022-11-25T17:52:41.412Z,10.24
2022-11-25T17:55:09.321Z,10.62
2022-11-25T17:57:36.916Z,10.65
2022-11-25T18:00:07.199Z,10.31
2022-11-25T18:02:34.715Z,10.07
2022-11-25T18:05:02.326Z,9.90
2022-11-25T18:07:29.845Z,10.14
2022-11-25T18:09:57.426Z,10.08
2022-11-25T18:12:26.510Z,10.10
2022-11-25T18:14:54.024Z,9.95
2022-11-25T18:17:22.902Z,10.05
2022-11-25T18:19:54.932Z,10.16
2022-11-25T18:22:24.044Z,10.20
2022-11-25T18:24:51.870Z,9.89
2022-11-25T18:27:21.049Z,9.93
2022-11-25T18:29:48.495Z,9.84
2022-11-25T18:32:15.986Z,9.59
2022-11-25T18:34:44.890Z,9.51
2022-11-25T18:37:12.706Z,9.55
2022-11-25T18:39:40.578Z,9.91
2022-11-25T18:42:08.219Z,9.98
2022-11-25T18:44:36.830Z,10.11
2022-11-25T18:47:05.398Z,9.51
2022-11-25T18:49:32.884Z,9.82
2022-11-25T18:52:01.769Z,9.58
2022-11-25T18:54:29.273Z,10.01
2022-11-25T18:56:56.853Z,9.69
2022-11-25T18:59:25.517Z,9.44
2022-11-25T19:01:53.051Z,9.54
2022-11-25T19:04:20.556Z,9.34
2022-11-25T19:06:48.027Z,9.49
2022-11-25T19:09:16.908Z,9.47
2022-11-25T19:11:45.652Z,9.04
2022-11-25T19:14:13.534Z,9.37
2022-11-25T19:16:41.411Z,9.15
2022-11-25T19:19:10.544Z,9.43
2022-11-25T19:21:38.118Z,9.43
2022-11-25T19:24:07.496Z,9.37
2022-11-25T19:26:36.655Z,9.17
2022-11-25T19:29:07.883Z,9.09
2022-11-25T19:31:35.436Z,9.14
2022-11-25T19:34:03.018Z,9.16
2022-11-25T19:36:31.219Z,9.29
2022-11-25T19:38:58.717Z,9.63
2022-11-25T19:41:26.240Z,9.44
2022-11-25T19:43:55.108Z,9.23
2022-11-25T19:46:29.657Z,9.44
2022-11-25T19:48:58.137Z,9.33
2022-11-25T19:51:25.875Z,9.25
2022-11-25T19:53:53.697Z,9.36
2022-11-25T19:56:23.721Z,9.35
2022-11-25T19:58:52.520Z,9.16
2022-11-25T20:01:21.889Z,9.17
2022-11-25T20:03:50.767Z,8.98
2022-11-25T20:06:18.836Z,9.21
2022-11-25T20:08:46.514Z,9.36
2022-11-25T20:11:14.176Z,9.36
2022-11-25T20:13:41.917Z,9.07
2022-11-25T20:16:11.078Z,8.92
2022-11-25T20:18:39.931Z,9.12
2022-11-25T20:21:07.457Z,8.90
2022-11-25T20:23:41.795Z,8.98
2022-11-25T20:26:11.643Z,9.02
2022-11-25T20:28:39.140Z,8.80
2022-11-25T20:31:06.723Z,8.81
2022-11-25T20:33:34.282Z,8.72
2022-11-25T20:36:04.615Z,8.62
2022-11-25T20:38:32.263Z,8.55
2022-11-25T20:40:59.824Z,8.90
2022-11-25T20:43:28.597Z,8.82
2022-11-25T20:45:56.431Z,8.93
2022-11-25T20:48:24.301Z,9.03
2022-11-25T20:50:51.849Z,8.97
2022-11-25T20:53:21.128Z,8.81
2022-11-25T20:55:48.802Z,8.75
2022-11-25T20:58:23.031Z,8.96
2022-11-25T21:00:56.868Z,8.99
2022-11-25T21:03:24.988Z,9.06
2022-11-25T21:05:52.633Z,9.03
2022-11-25T21:08:23.030Z,8.85
2022-11-25T21:10:50.966Z,9.01
2022-11-25T21:13:19.445Z,8.97
2022-11-25T21:15:47.007Z,9.03
2022-11-25T21:18:14.463Z,9.00
2022-11-25T21:20:42.128Z,8.97
2022-11-25T21:23:11.037Z,8.93
2022-11-25T21:25:39.889Z,8.67
2022-11-25T21:28:07.339Z,8.94
2022-11-25T21:30:34.877Z,8.97
2022-11-25T21:33:02.670Z,9.17
2022-11-25T21:35:30.948Z,9.16
2022-11-25T21:37:58.410Z,8.85
2022-11-25T21:40:31.042Z,8.86
2022-11-25T21:42:59.921Z,8.97
2022-11-25T21:45:27.428Z,8.83
2022-11-25T21:47:54.941Z,8.82
2022-11-25T21:50:22.476Z,8.90
2022-11-25T21:52:50.057Z,8.74
2022-11-25T21:55:17.924Z,8.63
2022-11-25T21:57:45.406Z,8.72
2022-11-25T22:00:24.504Z,8.53
2022-11-25T22:02:52.151Z,8.89
2022-11-25T22:05:20.232Z,9.12
2022-11-25T22:07:48.037Z,9.10
2022-11-25T22:10:15.961Z,8.86
2022-11-25T22:12:43.869Z,8.63
2022-11-25T22:15:12.893Z,8.84
2022-11-25T22:17:41.738Z,8.87
2022-11-25T22:20:15.607Z,8.80
2022-11-25T22:22:43.121Z,8.72
2022-11-25T22:25:10.908Z,8.75
2022-11-25T22:27:38.428Z,8.60
2022-11-25T22:30:06.574Z,8.54
2022-11-25T22:32:34.111Z,8.54
2022-11-25T22:35:02.977Z,8.70
2022-11-25T22:37:32.263Z,8.77
2022-11-25T22:39:59.740Z,8.63
2022-11-25T22:42:27.860Z,8.53
2022-11-25T22:44:55.596Z,8.68
2022-11-25T22:47:24.229Z,8.71
2022-11-25T22:49:52.794Z,8.72
2022-11-25T22:52:22.448Z,8.70
2022-11-25T22:54:50.171Z,8.36
2022-11-25T22:57:17.669Z,8.62
2022-11-25T22:59:45.163Z,8.62
2022-11-25T23:02:15.916Z,8.65
2022-11-25T23:04:43.460Z,8.67
2022-11-25T23:07:11.583Z,8.69
2022-11-25T23:09:40.480Z,8.63
2022-11-25T23:12:09.890Z,8.69
2022-11-25T23:14:37.514Z,8.54
2022-11-25T23:17:05.225Z,8.46
2022-11-25T23:19:32.730Z,8.46
2022-11-25T23:22:00.236Z,8.53
2022-11-25T23:24:27.706Z,8.36
2022-11-25T23:26:56.503Z,8.25
2022-11-25T23:29:24.034Z,8.27
2022-11-25T23:31:51.609Z,8.39
2022-11-25T23:34:19.175Z,8.46
2022-11-25T23:36:47.531Z,8.39
2022-11-25T23:39:17.115Z,8.48
2022-11-25T23:41:44.574Z,8.55
2022-11-25T23:44:14.213Z,8.49
2022-11-25T23:46:41.753Z,8.63
2022-11-25T23:49:10.467Z,8.63
2022-11-25T23:51:37.976Z,8.66
2022-11-25T23:54:05.536Z,8.28
2022-11-25T23:56:32.995Z,8.05
2022-11-25T23:59:01.160Z,8.21
